Time;durP1;ratioP1;P1;durP2;ratioP2;P2;SDS_P1;SDS_P2;PMS_P1;PMS_P2;Temp;Humidity;BMP_temperature;BMP_pressure;BME280_temperature;BME280_humidity;BME280_pressure;Samples;Min_cycle;Max_cycle;Signal;HPM_P1;HPM_P2
2023/12/12 08:01:53;;;;;;;0.20;0.20;;;;;;;15.16;100.00;75453.69;6217687;22;20063;-93
2023/12/12 08:07:41;;;;;;;0.20;0.20;;;;;;;15.29;100.00;75468.09;6248108;23;20062;-94
2023/12/12 08:39:15;;;;;;;0.20;0.20;;;;;;;14.96;100.00;75429.13;6213302;22;20031;-93
2023/12/12 08:41:40;;;;;;;0.20;0.20;;;;;;;15.20;100.00;75457.88;6213289;23;20020;-91
2023/12/12 08:44:06;;;;;;;0.20;0.20;;;;;;;15.23;100.00;75467.03;6213289;23;20013;-93
2023/12/12 08:46:31;;;;;;;0.20;0.20;;;;;;;15.29;100.00;75471.47;6218601;23;20011;-92
2023/12/12 08:49:00;;;;;;;0.20;0.20;;;;;;;15.29;100.00;75473.66;6217474;23;20013;-93
2023/12/12 08:51:26;;;;;;;0.20;0.20;;;;;;;15.35;100.00;75480.84;6217885;23;20004;-93
2023/12/12 08:53:52;;;;;;;0.20;0.20;;;;;;;15.14;100.00;75454.09;6218657;23;20008;-94
2023/12/12 08:56:18;;;;;;;0.20;0.20;;;;;;;15.34;100.00;75476.84;6217919;23;20027;-93
2023/12/12 09:01:30;;;;;;;0.20;0.20;;;;;;;15.29;100.00;75470.88;6245518;22;20475;-92
2023/12/12 09:03:56;;;;;;;0.20;0.20;;;;;;;15.30;100.00;75469.88;6218180;23;20012;-94
2023/12/12 09:06:22;;;;;;;0.20;0.20;;;;;;;15.23;100.00;75464.25;6218003;23;20003;-95
2023/12/12 09:08:47;;;;;;;0.20;0.20;;;;;;;15.41;100.00;75482.47;6218236;23;20004;-94
2023/12/12 09:11:13;;;;;;;0.20;0.20;;;;;;;15.47;100.00;75495.22;6217590;23;20094;-94
2023/12/12 09:13:41;;;;;;;0.20;0.20;;;;;;;15.53;100.00;75496.25;6218335;23;20050;-94
2023/12/12 09:16:07;;;;;;;0.20;0.20;;;;;;;15.42;100.00;75489.81;6218191;23;20478;-95
2023/12/12 09:18:32;;;;;;;0.20;0.20;;;;;;;15.56;100.00;75503.22;6219372;23;20004;-94
2023/12/12 09:20:58;;;;;;;0.20;0.20;;;;;;;15.68;100.00;75519.81;6219508;23;20007;-96
2023/12/12 10:10:28;;;;;;;0.20;0.20;;;;;;;15.90;100.00;75546.19;6215212;22;20027;-95
2023/12/12 10:12:53;;;;;;;0.20;0.20;;;;;;;16.03;100.00;75555.00;6219793;22;19996;-95
2023/12/12 10:15:24;;;;;;;0.20;0.20;;;;;;;16.12;100.00;75566.41;6244914;23;20038;-94
2023/12/12 10:17:58;;;;;;;0.20;0.20;;;;;;;16.05;100.00;75566.38;6220363;23;20062;-94
2023/12/12 10:20:27;;;;;;;0.20;0.20;;;;;;;16.04;100.00;75559.00;6219212;23;20019;-94
2023/12/12 10:22:56;;;;;;;0.20;0.20;;;;;;;16.08;100.00;75558.81;6219350;23;20015;-94
2023/12/12 10:25:22;;;;;;;0.20;0.20;;;;;;;16.00;100.00;75554.81;6218650;23;20004;-94
2023/12/12 10:27:51;;;;;;;0.20;0.20;;;;;;;15.99;100.00;75550.81;6219704;23;20008;-94
2023/12/12 10:30:16;;;;;;;0.20;0.20;;;;;;;15.98;100.00;75550.22;6220559;23;19996;-93
2023/12/12 10:35:28;;;;;;;0.20;0.20;;;;;;;15.97;100.00;75546.22;6213110;23;20021;-94
2023/12/12 10:37:53;;;;;;;0.20;0.20;;;;;;;16.15;100.00;75572.78;6210975;23;20030;-94
2023/12/12 10:40:23;;;;;;;0.20;0.20;;;;;;;16.11;100.00;75565.19;6215164;23;20059;-94
2023/12/12 10:42:50;;;;;;;0.20;0.20;;;;;;;16.21;100.00;75577.19;6215196;23;20175;-94
2023/12/12 10:45:16;;;;;;;0.20;0.20;;;;;;;16.21;100.00;75579.97;6190976;23;20012;-95
2023/12/12 10:47:50;;;;;;;0.20;0.20;;;;;;;16.14;100.00;75574.38;6215084;23;20004;-95
2023/12/12 10:50:17;;;;;;;0.20;0.20;;;;;;;16.41;100.00;75605.56;6216154;23;20004;-95
2023/12/12 10:52:45;;;;;;;0.20;0.20;;;;;;;16.39;100.00;75600.38;6217231;23;20099;-96
2023/12/12 10:55:15;;;;;;;0.20;0.20;;;;;;;16.45;100.00;75604.75;6215865;23;20000;-95
2023/12/12 10:57:47;;;;;;;0.20;0.20;;;;;;;16.40;100.00;75604.94;6215023;23;20004;-96
2023/12/12 11:03:07;;;;;;;0.20;0.20;;;;;;;16.32;100.00;75591.97;6213682;22;20032;-93
2023/12/12 11:05:33;;;;;;;0.20;0.20;;;;;;;16.44;100.00;75600.78;6215220;23;20038;-94
2023/12/12 11:08:03;;;;;;;0.20;0.20;;;;;;;16.12;100.00;75568.59;6215639;23;20014;-91
2023/12/12 11:13:15;;;;;;;0.20;0.20;;;;;;;16.38;100.00;75599.16;6215970;22;20028;-92
2023/12/12 11:15:43;;;;;;;0.20;0.20;;;;;;;16.35;100.00;75592.78;6211887;23;20009;-93
2023/12/12 11:41:34;;;;;;;0.20;0.20;;;;;;;16.63;100.00;75623.56;6208585;22;20025;-93
2023/12/12 12:03:21;;;;;;;0.20;0.20;;;;;;;16.49;100.00;75610.16;6216587;22;20027;-95
2023/12/12 12:05:46;;;;;;;0.20;0.20;;;;;;;16.76;100.00;75641.97;6218544;23;20012;-95
2023/12/12 12:08:12;;;;;;;0.20;0.20;;;;;;;16.98;100.00;75669.97;6219201;23;20016;-94
2023/12/12 12:10:38;;;;;;;0.20;0.20;;;;;;;16.92;100.00;75662.78;6219361;23;20004;-93
2023/12/12 12:13:03;;;;;;;0.20;0.20;;;;;;;16.73;100.00;75635.59;6218666;23;20011;-94
2023/12/12 12:15:29;;;;;;;0.20;0.20;;;;;;;16.97;100.00;75665.97;6218520;23;20000;-93
2023/12/12 12:17:56;;;;;;;0.20;0.20;;;;;;;16.93;100.00;75661.16;6219287;23;20011;-93
2023/12/12 12:20:22;;;;;;;0.20;0.20;;;;;;;16.88;100.00;75661.34;6218445;23;20026;-94
2023/12/12 12:22:48;;;;;;;0.20;0.20;;;;;;;16.79;100.00;75641.59;6218175;23;20091;-95
2023/12/12 12:27:58;;;;;;;0.20;0.20;;;;;;;16.62;100.00;75625.19;6215146;22;20032;-94
2023/12/12 12:30:25;;;;;;;0.20;0.20;;;;;;;17.19;100.00;75692.38;6220132;23;20056;-94
2023/12/12 12:33:07;;;;;;;0.20;0.20;;;;;;;17.28;100.00;75697.59;6218713;23;20008;-95
2023/12/12 12:35:32;;;;;;;0.20;0.20;;;;;;;17.13;100.00;75684.56;6218734;23;20512;-95
2023/12/12 12:37:58;;;;;;;0.20;0.20;;;;;;;17.05;100.00;75677.78;6218530;23;20004;-94
2023/12/12 12:40:34;;;;;;;0.20;0.20;;;;;;;17.31;100.00;75705.56;6218149;23;20087;-96
2023/12/12 12:43:04;;;;;;;0.20;0.20;;;;;;;17.33;100.00;75707.97;6218367;23;20008;-94
2023/12/12 12:45:30;;;;;;;0.20;0.20;;;;;;;17.20;100.00;75699.16;6219322;23;20019;-95
2023/12/12 12:47:55;;;;;;;0.20;0.20;;;;;;;17.50;100.00;75728.38;6218034;23;20000;-94
2023/12/12 12:50:21;;;;;;;0.20;0.20;;;;;;;17.49;100.00;75733.38;6218023;23;20008;-95
2023/12/12 12:52:46;;;;;;;0.20;0.20;;;;;;;17.44;100.00;75718.97;6218097;23;20004;-95
2023/12/12 12:55:12;;;;;;;0.20;0.20;;;;;;;17.39;100.00;75712.38;6217539;23;20000;-96
2023/12/12 12:57:39;;;;;;;0.20;0.20;;;;;;;17.15;100.00;75686.97;6217930;23;20031;-95
2023/12/12 13:00:06;;;;;;;0.20;0.20;;;;;;;17.44;100.00;75721.19;6213807;23;20186;-95
2023/12/12 13:02:32;;;;;;;0.20;0.20;;;;;;;17.52;100.00;75730.78;6218392;23;20004;-95
2023/12/12 13:04:57;;;;;;;0.20;0.20;;;;;;;17.37;100.00;75707.78;6219998;23;20059;-96
2023/12/12 13:07:23;;;;;;;0.20;0.20;;;;;;;17.42;100.00;75722.19;6217801;23;20003;-95
2023/12/12 13:12:31;;;;;;;;;;;;;;;17.34;100.00;75709.19;6214536;22;20025;-95
2023/12/12 13:17:41;;;;;;;0.20;0.20;;;;;;;17.29;100.00;75709.97;6215958;22;20021;-94
2023/12/12 13:20:10;;;;;;;0.20;0.20;;;;;;;17.06;100.00;75676.78;6188490;23;20072;-94
2023/12/12 13:22:44;;;;;;;0.20;0.20;;;;;;;16.75;100.00;75646.38;6214261;23;20005;-94
2023/12/12 13:25:10;;;;;;;0.20;0.20;;;;;;;16.64;100.00;75627.56;6213158;23;20025;-95
2023/12/12 13:27:40;;;;;;;0.20;0.20;;;;;;;17.09;100.00;75679.78;6218804;23;20000;-94
2023/12/12 13:30:10;;;;;;;0.20;0.20;;;;;;;17.01;100.00;75670.78;6218195;23;20012;-94
2023/12/12 13:32:40;;;;;;;0.20;0.20;;;;;;;16.98;100.00;75667.16;6218412;23;20468;-95
2023/12/12 13:38:07;;;;;;;0.20;0.20;;;;;;;16.91;100.00;75658.78;6214038;22;20021;-95
2023/12/12 13:40:32;;;;;;;0.20;0.20;;;;;;;17.04;100.00;75674.38;6213082;23;20087;-95
2023/12/12 13:42:58;;;;;;;0.20;0.20;;;;;;;16.90;100.00;75663.16;6212806;23;19997;-95
2023/12/12 13:45:23;;;;;;;0.20;0.20;;;;;;;17.08;100.00;75681.97;6212732;23;20066;-95
2023/12/12 13:47:49;;;;;;;0.20;0.20;;;;;;;16.81;100.00;75646.78;6212398;23;20010;-96
2023/12/12 13:50:15;;;;;;;0.20;0.20;;;;;;;16.84;100.00;75650.38;6212696;23;20261;-95
2023/12/12 13:52:40;;;;;;;0.20;0.20;;;;;;;17.09;100.00;75685.34;6212568;23;20000;-94
2023/12/12 13:55:08;;;;;;;0.20;0.20;;;;;;;16.74;100.00;75644.56;6212823;23;20015;-95
2023/12/12 13:57:34;;;;;;;0.20;0.20;;;;;;;17.10;100.00;75687.19;6213174;23;20008;-95
2023/12/12 13:59:59;;;;;;;0.20;0.20;;;;;;;16.90;100.00;75657.59;6213057;23;20201;-96
2023/12/12 14:02:25;;;;;;;0.20;0.20;;;;;;;16.86;100.00;75652.78;6210637;23;20016;-95
2023/12/12 14:04:50;;;;;;;0.20;0.20;;;;;;;16.97;100.00;75669.38;6210753;23;20004;-96
2023/12/12 14:07:19;;;;;;;0.20;0.20;;;;;;;16.97;100.00;75668.78;6211363;23;20019;-96
2023/12/12 14:09:44;;;;;;;0.20;0.20;;;;;;;16.95;100.00;75664.19;6210750;23;20040;-96
2023/12/12 14:12:10;;;;;;;0.20;0.20;;;;;;;16.49;100.00;75606.78;6210856;23;20036;-94
2023/12/12 14:14:38;;;;;;;0.20;0.20;;;;;;;16.58;100.00;75619.78;6210516;23;20153;-95
2023/12/12 14:17:04;;;;;;;0.20;0.20;;;;;;;16.45;100.00;75608.16;6214203;23;20437;-95
2023/12/12 14:19:29;;;;;;;0.20;0.20;;;;;;;16.63;100.00;75626.38;6211052;23;20039;-96
2023/12/12 14:21:55;;;;;;;0.20;0.20;;;;;;;16.48;100.00;75605.59;6209727;23;20391;-96
2023/12/12 14:24:20;;;;;;;0.20;0.20;;;;;;;16.36;100.00;75591.19;6210782;23;20031;-96
2023/12/12 14:29:47;;;;;;;0.20;0.20;;;;;;;16.30;100.00;75586.78;6195144;22;20039;-92
2023/12/12 14:32:14;;;;;;;0.30;0.30;;;;;;;15.95;100.00;75546.63;6211600;23;20074;-95
2023/12/12 14:37:37;;;;;;;0.20;0.20;;;;;;;15.91;100.00;75541.81;6212552;22;20070;-96
2023/12/12 14:40:04;;;;;;;0.20;0.20;;;;;;;15.71;100.00;75518.44;6210096;23;20012;-96
2023/12/12 14:42:29;;;;;;;0.20;0.20;;;;;;;15.43;100.00;75485.44;6215534;23;20015;-94
2023/12/12 14:44:55;;;;;;;0.20;0.20;;;;;;;15.87;100.00;75536.41;6215617;23;20408;-96
2023/12/12 14:47:20;;;;;;;0.20;0.20;;;;;;;15.43;100.00;75482.06;6215621;23;20008;-95
2023/12/12 14:49:46;;;;;;;0.20;0.20;;;;;;;15.59;100.00;75509.59;6215166;23;20004;-94
2023/12/12 14:52:14;;;;;;;0.20;0.20;;;;;;;15.35;100.00;75475.28;6215748;23;20012;-94
2023/12/12 14:54:42;;;;;;;0.20;0.20;;;;;;;15.58;100.00;75502.22;6215367;23;20079;-96
2023/12/12 14:57:07;;;;;;;0.20;0.20;;;;;;;15.63;100.00;75508.25;6215122;23;20071;-93
2023/12/12 14:59:32;;;;;;;0.20;0.20;;;;;;;15.55;100.00;75499.22;6215759;23;20332;-94
2023/12/12 15:01:58;;;;;;;0.20;0.20;;;;;;;15.25;100.00;75469.44;6215021;23;20074;-94
2023/12/12 15:04:23;;;;;;;0.20;0.20;;;;;;;15.33;100.00;75470.06;6215644;23;20099;-95
2023/12/12 15:06:52;;;;;;;0.20;0.20;;;;;;;15.28;100.00;75472.44;6215647;23;20111;-95
2023/12/12 15:09:17;;;;;;;0.20;0.20;;;;;;;15.16;100.00;75453.69;6215898;23;20069;-94
2023/12/12 15:11:42;;;;;;;0.20;0.20;;;;;;;15.25;100.00;75466.06;6215504;23;20074;-95
2023/12/12 15:14:11;;;;;;;0.20;0.20;;;;;;;15.22;100.00;75465.25;6214743;23;20008;-96
2023/12/12 15:16:38;;;;;;;0.30;0.30;;;;;;;15.02;100.00;75442.50;6215899;23;20019;-94
2023/12/12 15:19:06;;;;;;;0.20;0.20;;;;;;;14.84;100.00;75415.34;6214810;23;20087;-94
2023/12/12 15:21:31;;;;;;;0.20;0.20;;;;;;;15.10;100.00;75446.50;6215249;23;20023;-94
2023/12/12 15:23:57;;;;;;;0.20;0.20;;;;;;;14.91;100.00;75427.13;6215726;23;20420;-94
2023/12/12 15:26:28;;;;;;;0.20;0.20;;;;;;;14.98;100.00;75437.69;6214586;23;20016;-93
2023/12/12 15:28:55;;;;;;;0.30;0.30;;;;;;;14.74;100.00;75406.16;6215118;23;20008;-95
2023/12/12 15:31:23;;;;;;;0.20;0.20;;;;;;;14.94;100.00;75432.91;6215215;23;20286;-95
2023/12/12 15:33:52;;;;;;;0.20;0.20;;;;;;;14.82;100.00;75412.97;6215145;23;20028;-93
2023/12/12 15:36:17;;;;;;;0.25;0.25;;;;;;;14.82;100.00;75415.75;6217334;23;20024;-94
2023/12/12 15:38:43;;;;;;;0.20;0.20;;;;;;;14.80;100.00;75413.34;6215545;23;20032;-95
2023/12/12 15:41:11;;;;;;;0.20;0.20;;;;;;;14.62;100.00;75395.16;6215412;23;20008;-94
2023/12/12 15:43:36;;;;;;;0.20;0.20;;;;;;;14.69;100.00;75400.75;6217453;23;20088;-95
2023/12/12 17:02:30;;;;;;;0.20;0.20;;;;;;;13.82;100.00;75301.13;6183250;22;20017;-95
